Time;durP1;ratioP1;P1;durP2;ratioP2;P2;SDS_P1;SDS_P2;PMS_P1;PMS_P2;Temp;Humidity;BMP_temperature;BMP_pressure;BME280_temperature;BME280_humidity;BME280_pressure;Samples;Min_cycle;Max_cycle;Signal;HPM_P1;HPM_P2
2021/12/26 00:04:16;;;;;;;2.60;1.90;;;;;;;-4.61;78.33;100863.34;10539588;28;20071;-61
2021/12/26 00:09:19;;;;;;;2.83;1.80;;;;;;;-4.60;79.48;100854.84;10539334;28;20052;-61
2021/12/26 00:14:21;;;;;;;3.33;2.20;;;;;;;-4.55;79.38;100853.19;10539937;28;20052;-58
2021/12/26 00:19:23;;;;;;;4.72;2.25;;;;;;;-4.64;79.66;100848.00;10547843;28;20055;-60
2021/12/26 00:24:26;;;;;;;3.05;2.38;;;;;;;-4.54;78.97;100845.53;10547596;28;20048;-60
2021/12/26 00:29:28;;;;;;;2.85;1.90;;;;;;;-4.51;79.82;100840.41;10547479;28;20521;-60
2021/12/26 00:34:30;;;;;;;3.85;2.45;;;;;;;-4.58;79.73;100843.78;10547215;28;20503;-59
2021/12/26 00:39:34;;;;;;;5.00;2.03;;;;;;;-4.18;81.15;100843.13;10547044;28;20052;-59
2021/12/26 00:44:39;;;;;;;3.20;2.35;;;;;;;-4.36;79.49;100837.06;10546770;28;20380;-59
2021/12/26 00:49:42;;;;;;;4.28;1.90;;;;;;;-4.21;79.46;100833.72;10529524;28;20048;-60
2021/12/26 00:54:44;;;;;;;3.05;2.35;;;;;;;-4.29;80.43;100827.72;10546331;28;20046;-59
2021/12/26 00:59:47;;;;;;;4.70;2.30;;;;;;;-4.56;80.08;100833.56;10546133;28;20059;-60
2021/12/26 01:04:49;;;;;;;4.75;2.13;;;;;;;-4.46;78.73;100830.22;10545938;28;20484;-60
2021/12/26 01:09:53;;;;;;;2.30;2.10;;;;;;;-4.65;79.49;100828.44;10546202;28;20048;-59
2021/12/26 01:14:59;;;;;;;3.15;2.15;;;;;;;-4.69;77.10;100823.28;10545546;28;20052;-60
2021/12/26 01:20:07;;;;;;;3.65;2.33;;;;;;;-4.72;77.21;100819.88;10545812;28;20074;-60
2021/12/26 01:25:09;;;;;;;2.53;1.80;;;;;;;-4.61;78.92;100825.03;10545055;28;20499;-60
2021/12/26 01:30:12;;;;;;;6.63;1.70;;;;;;;-4.71;78.00;100840.31;10544047;28;20048;-60
2021/12/26 01:35:14;;;;;;;3.58;2.20;;;;;;;-4.64;79.47;100827.56;10545101;28;20416;-60
2021/12/26 01:40:17;;;;;;;4.25;1.95;;;;;;;-4.59;77.89;100841.22;10544686;28;20048;-61
2021/12/26 01:45:19;;;;;;;3.38;2.50;;;;;;;-4.81;78.41;100842.78;10543322;28;20407;-60
2021/12/26 01:50:22;;;;;;;4.45;2.45;;;;;;;-4.57;78.82;100839.50;10544765;28;20044;-61
2021/12/26 01:55:37;;;;;;;6.20;2.45;;;;;;;-4.60;79.05;100844.63;10543119;28;20059;-62
2021/12/26 02:00:42;;;;;;;4.43;2.28;;;;;;;-4.54;79.14;100839.53;10543349;28;20070;-60
2021/12/26 02:05:44;;;;;;;3.65;1.95;;;;;;;-4.72;79.90;100830.09;10544069;28;20051;-61
2021/12/26 02:10:47;;;;;;;3.28;2.15;;;;;;;-4.58;79.18;100825.91;10543088;28;20389;-60
2021/12/26 02:15:51;;;;;;;2.85;2.22;;;;;;;-4.78;80.15;100827.50;10541688;28;20400;-60
2021/12/26 02:30:59;;;;;;;4.95;2.60;;;;;;;-4.80;79.15;100818.97;10542623;28;20055;-59
2021/12/26 02:36:02;;;;;;;2.60;2.03;;;;;;;-4.90;81.28;100818.91;10543197;28;20060;-61
2021/12/26 02:41:05;;;;;;;4.10;3.08;;;;;;;-4.71;81.95;100816.44;10541797;28;20078;-61
2021/12/26 02:46:07;;;;;;;3.67;2.40;;;;;;;-4.93;82.28;100813.75;10541704;28;20063;-61
2021/12/26 02:51:10;;;;;;;4.38;2.22;;;;;;;-4.96;82.09;100806.09;10541709;28;20537;-61
2021/12/26 02:56:12;;;;;;;2.97;2.17;;;;;;;-5.01;81.87;100802.63;10541648;28;20056;-60
2021/12/26 03:01:23;;;;;;;2.75;2.20;;;;;;;-5.13;81.59;100795.75;10541607;28;20048;-61
2021/12/26 03:06:38;;;;;;;5.63;2.20;;;;;;;-5.01;81.19;100796.69;10541613;28;20063;-62
2021/12/26 03:11:44;;;;;;;2.60;2.17;;;;;;;-5.07;80.41;100793.25;10541076;28;20044;-60
2021/12/26 03:16:48;;;;;;;5.32;2.90;;;;;;;-5.10;81.12;100797.50;10541107;28;20052;-60
2021/12/26 03:21:51;;;;;;;4.05;2.90;;;;;;;-5.10;80.83;100798.34;10540663;28;20052;-60
2021/12/26 03:27:01;;;;;;;3.40;2.15;;;;;;;-5.10;80.85;100808.53;10540404;28;20071;-61
2021/12/26 03:32:06;;;;;;;4.40;2.38;;;;;;;-5.16;81.16;100800.00;10522436;28;20488;-60
2021/12/26 03:37:09;;;;;;;2.78;1.95;;;;;;;-4.79;82.79;100801.09;10540288;28;20048;-60
2021/12/26 03:42:11;;;;;;;4.22;2.38;;;;;;;-4.88;83.60;100806.97;10539777;28;20484;-61
2021/12/26 03:47:13;;;;;;;2.97;2.50;;;;;;;-5.11;84.28;100796.66;10539747;28;20054;-61
2021/12/26 03:52:16;;;;;;;4.38;2.20;;;;;;;-4.97;83.59;100789.06;10537769;28;20044;-61
2021/12/26 03:57:18;;;;;;;3.78;2.33;;;;;;;-4.93;82.59;100785.66;10539746;28;20055;-60
2021/12/26 04:02:21;;;;;;;2.83;2.47;;;;;;;-4.87;82.87;100789.97;10539477;28;20048;-60
2021/12/26 04:07:23;;;;;;;3.80;2.47;;;;;;;-4.98;83.11;100796.72;10537877;28;20052;-60
2021/12/26 04:12:26;;;;;;;3.28;2.45;;;;;;;-4.95;81.19;100771.19;10539192;28;20488;-61
2021/12/26 04:17:28;;;;;;;4.78;2.40;;;;;;;-4.90;79.57;100778.03;10539200;28;20051;-62
2021/12/26 04:22:31;;;;;;;3.30;2.50;;;;;;;-4.80;79.86;100767.88;10538007;28;20044;-60
2021/12/26 04:27:34;;;;;;;7.20;2.78;;;;;;;-4.77;81.37;100770.47;10537516;28;20044;-60
2021/12/26 04:32:36;;;;;;;3.55;2.28;;;;;;;-4.81;79.78;100769.56;10537671;28;20511;-60
2021/12/26 04:37:39;;;;;;;3.10;2.05;;;;;;;-4.71;79.13;100762.81;10538866;28;20059;-60
2021/12/26 04:42:47;;;;;;;2.30;1.85;;;;;;;-4.71;78.65;100755.13;10537813;28;20070;-60
2021/12/26 04:47:50;;;;;;;2.63;2.05;;;;;;;-4.82;77.87;100749.13;10538778;28;20067;-61
2021/12/26 04:52:53;;;;;;;3.55;2.03;;;;;;;-4.71;79.28;100739.81;10538687;28;20407;-60
2021/12/26 04:57:56;;;;;;;4.68;2.60;;;;;;;-4.81;79.25;100750.84;10538301;28;20522;-60
2021/12/26 05:03:02;;;;;;;3.90;2.40;;;;;;;-4.88;79.77;100745.69;10542992;28;20396;-61
2021/12/26 05:08:09;;;;;;;3.20;2.40;;;;;;;-4.85;78.21;100747.41;10545036;28;20401;-62
2021/12/26 05:13:11;;;;;;;4.18;2.35;;;;;;;-4.94;78.14;100734.59;10545599;28;20047;-61
2021/12/26 05:18:13;;;;;;;3.60;2.55;;;;;;;-4.83;77.17;100732.94;10545829;28;20054;-61
2021/12/26 05:23:16;;;;;;;5.25;2.08;;;;;;;-4.66;77.36;100733.03;10544368;28;20048;-59
2021/12/26 05:28:18;;;;;;;3.75;3.17;;;;;;;-4.66;76.66;100730.47;10545256;28;20051;-60
2021/12/26 05:33:20;;;;;;;2.50;2.22;;;;;;;-4.52;77.79;100726.28;10544688;28;20400;-60
2021/12/26 05:38:25;;;;;;;6.05;2.00;;;;;;;-4.44;77.03;100713.50;10544829;28;20378;-59
2021/12/26 05:43:28;;;;;;;3.72;2.38;;;;;;;-4.41;76.39;100717.78;10544361;28;20492;-60
2021/12/26 05:48:30;;;;;;;2.72;1.90;;;;;;;-4.44;75.35;100718.59;10544593;28;20149;-61
2021/12/26 05:53:32;;;;;;;5.07;2.40;;;;;;;-4.13;76.60;100714.44;10544633;28;20055;-60
2021/12/26 05:58:35;;;;;;;4.10;2.10;;;;;;;-4.22;75.32;100711.00;10544260;28;20048;-60
2021/12/26 06:03:37;;;;;;;2.85;2.38;;;;;;;-4.03;76.75;100715.31;10542176;28;20500;-60
2021/12/26 06:08:40;;;;;;;4.22;2.47;;;;;;;-4.08;76.51;100708.44;10544645;28;20048;-60
2021/12/26 06:13:42;;;;;;;3.88;2.60;;;;;;;-3.98;76.25;100716.16;10541490;28;20048;-60
2021/12/26 06:18:44;;;;;;;3.05;1.80;;;;;;;-4.05;75.32;100721.25;10543551;28;20047;-60
2021/12/26 06:23:50;;;;;;;3.90;2.58;;;;;;;-3.98;76.29;100708.50;10542953;28;20051;-60
2021/12/26 06:28:52;;;;;;;2.55;2.17;;;;;;;-4.02;75.80;100711.88;10541709;28;20093;-61
2021/12/26 06:33:55;;;;;;;2.58;2.38;;;;;;;-4.11;74.94;100706.75;10542642;28;20492;-61
2021/12/26 06:38:57;;;;;;;3.60;2.35;;;;;;;-3.90;76.81;100707.63;10542288;28;20059;-62
2021/12/26 06:44:00;;;;;;;3.17;2.65;;;;;;;-3.88;76.46;100704.22;10543080;28;20051;-60
2021/12/26 06:49:04;;;;;;;3.75;2.67;;;;;;;-3.96;77.59;100698.25;10540981;28;20047;-59
2021/12/26 06:54:06;;;;;;;2.55;2.00;;;;;;;-4.00;77.45;100697.41;10542247;28;20059;-60
2021/12/26 06:59:09;;;;;;;4.07;2.28;;;;;;;-3.81;78.99;100693.13;10541851;28;20055;-60
2021/12/26 07:04:11;;;;;;;4.40;3.03;;;;;;;-4.05;77.54;100696.56;10541835;28;20052;-61
2021/12/26 07:09:14;;;;;;;4.10;2.30;;;;;;;-3.88;79.18;100686.31;10541776;28;20088;-61
2021/12/26 07:14:16;;;;;;;3.20;2.10;;;;;;;-3.75;80.06;100689.72;10540084;28;20052;-61
2021/12/26 07:19:19;;;;;;;3.70;1.85;;;;;;;-3.73;79.20;100703.38;10539771;28;20488;-59
2021/12/26 07:24:21;;;;;;;2.38;2.08;;;;;;;-3.80;79.62;100702.53;10540340;28;20396;-59
2021/12/26 07:29:23;;;;;;;3.35;2.30;;;;;;;-3.85;78.73;100703.38;10540494;28;20047;-58
2021/12/26 07:34:26;;;;;;;3.40;2.35;;;;;;;-3.87;79.73;100700.81;10540427;28;20048;-60
2021/12/26 07:39:28;;;;;;;4.18;2.33;;;;;;;-3.84;78.53;100697.41;10539996;28;20534;-62
2021/12/26 07:44:30;;;;;;;3.53;2.47;;;;;;;-3.81;80.77;100698.25;10539946;28;20048;-60
2021/12/26 07:49:33;;;;;;;4.82;2.70;;;;;;;-3.97;78.83;100694.84;10539945;28;20055;-59
2021/12/26 07:54:35;;;;;;;3.75;2.40;;;;;;;-4.01;79.47;100694.84;10538395;28;20052;-61
2021/12/26 07:59:37;;;;;;;2.17;1.88;;;;;;;-3.99;80.29;100688.88;10539815;28;20052;-59
2021/12/26 08:04:40;;;;;;;3.42;2.53;;;;;;;-3.96;80.72;100691.44;10539803;28;20048;-61
2021/12/26 08:09:43;;;;;;;3.13;2.22;;;;;;;-3.90;80.96;100694.84;10539266;28;20381;-62
2021/12/26 08:14:45;;;;;;;6.30;2.45;;;;;;;-3.70;81.79;100689.72;10539605;28;20052;-60
2021/12/26 08:19:47;;;;;;;2.80;2.53;;;;;;;-3.74;81.05;100702.50;10539113;28;20054;-61
2021/12/26 08:24:50;;;;;;;3.47;2.70;;;;;;;-3.81;82.91;100698.25;10538992;28;20404;-61
2021/12/26 08:29:53;;;;;;;8.40;2.60;;;;;;;-3.75;82.11;100705.06;10539034;28;20051;-61
2021/12/26 08:34:56;;;;;;;8.30;3.22;;;;;;;-3.76;81.79;100711.91;10538825;28;20048;-61
2021/12/26 08:39:59;;;;;;;3.13;2.38;;;;;;;-3.63;80.16;100699.09;10547147;28;20060;-60
2021/12/26 08:45:01;;;;;;;4.57;2.25;;;;;;;-3.60;79.79;100705.09;10546820;28;20048;-60
2021/12/26 08:50:05;;;;;;;3.55;2.70;;;;;;;-3.71;81.54;100711.91;10545351;28;20083;-60
2021/12/26 08:55:10;;;;;;;2.58;2.20;;;;;;;-3.59;79.78;100711.91;10545384;28;20048;-60
2021/12/26 09:00:13;;;;;;;4.28;2.72;;;;;;;-3.54;79.99;100709.34;10540868;28;20415;-58
2021/12/26 09:05:16;;;;;;;3.97;2.42;;;;;;;-3.58;79.79;100703.38;10542716;28;20127;-60
2021/12/26 09:10:18;;;;;;;5.68;3.03;;;;;;;-3.53;79.23;100702.50;10544614;28;20048;-60
2021/12/26 09:15:22;;;;;;;2.55;2.25;;;;;;;-3.46;77.86;100699.94;10545591;28;20411;-62
2021/12/26 09:20:25;;;;;;;3.30;2.58;;;;;;;-3.33;77.64;100705.03;10545618;28;20051;-60
2021/12/26 09:25:27;;;;;;;3.40;3.00;;;;;;;-3.23;78.43;100694.78;10545125;28;20044;-60
2021/12/26 09:30:30;;;;;;;4.72;2.97;;;;;;;-3.28;78.04;100693.91;10544851;28;20052;-61
2021/12/26 09:35:32;;;;;;;4.32;2.80;;;;;;;1.31;67.71;100690.44;10545180;28;20484;-59
2021/12/26 09:40:36;;;;;;;3.80;3.08;;;;;;;1.45;65.23;100695.31;10545277;28;20123;-61
2021/12/26 09:45:39;;;;;;;3.63;3.00;;;;;;;0.01;66.42;100703.94;10544596;28;20063;-60
2021/12/26 09:50:42;;;;;;;6.00;2.80;;;;;;;-1.60;69.86;100710.13;10542337;28;20048;-60
2021/12/26 09:55:45;;;;;;;6.35;3.13;;;;;;;-1.25;72.14;100689.25;10544515;28;20122;-59
2021/12/26 10:00:48;;;;;;;3.28;2.75;;;;;;;-1.65;74.71;100688.78;10544369;28;20048;-61
2021/12/26 10:06:12;;;;;;;3.33;2.85;;;;;;;-1.90;74.15;100687.28;10543835;28;20067;-60
2021/12/26 10:11:16;;;;;;;4.10;3.10;;;;;;;-2.10;75.76;100692.56;10543894;28;20048;-59
2021/12/26 10:16:22;;;;;;;4.82;3.05;;;;;;;-1.96;75.60;100689.03;10544120;28;20048;-60
2021/12/26 10:21:30;;;;;;;5.95;3.33;;;;;;;-1.88;78.06;100674.44;10543249;28;20044;-59
2021/12/26 10:26:37;;;;;;;5.30;3.08;;;;;;;-1.85;76.21;100676.13;10543474;28;20048;-61
2021/12/26 10:32:04;;;;;;;8.80;4.10;;;;;;;-1.74;78.13;100654.63;10541694;28;20048;-61
2021/12/26 10:37:13;;;;;;;5.85;3.85;;;;;;;-1.72;76.59;100654.63;10543554;28;20056;-60
2021/12/26 10:42:19;;;;;;;7.72;3.45;;;;;;;-1.24;76.37;100649.00;10542639;28;20055;-60
2021/12/26 10:47:30;;;;;;;5.40;4.07;;;;;;;-1.45;76.82;100632.94;10542884;28;20052;-62
2021/12/26 10:52:50;;;;;;;4.80;3.70;;;;;;;-1.25;77.14;100631.88;10542293;28;20404;-60
2021/12/26 10:57:53;;;;;;;6.45;3.63;;;;;;;-1.09;77.11;100627.41;10542057;28;20056;-60
2021/12/26 11:03:04;;;;;;;6.88;4.10;;;;;;;-0.27;76.89;100628.03;10541608;28;20485;-60
2021/12/26 11:08:12;;;;;;;4.93;4.03;;;;;;;-0.54;77.02;100626.69;10541808;28;20075;-59
2021/12/26 11:13:31;;;;;;;6.45;4.25;;;;;;;-1.18;78.86;100623.22;10542049;28;20052;-62
2021/12/26 11:18:36;;;;;;;5.80;4.20;;;;;;;-0.95;79.36;100621.22;10541826;28;20048;-62
2021/12/26 11:23:40;;;;;;;5.47;3.47;;;;;;;-0.94;80.42;100616.97;10540952;28;20048;-61
2021/12/26 11:28:51;;;;;;;6.38;4.72;;;;;;;-0.90;80.63;100610.91;10540812;28;20040;-60
2021/12/26 11:33:59;;;;;;;4.57;4.13;;;;;;;-0.93;81.05;100600.66;10540459;28;20040;-60
2021/12/26 11:39:07;;;;;;;6.20;4.18;;;;;;;-1.02;79.47;100601.63;10540658;28;20054;-61
2021/12/26 11:44:31;;;;;;;8.73;4.68;;;;;;;-0.67;81.80;100591.72;10540433;28;20055;-59
2021/12/26 11:50:04;;;;;;;7.32;4.38;;;;;;;-0.42;82.00;100590.50;10539158;28;20047;-59
2021/12/26 11:55:10;;;;;;;8.55;5.45;;;;;;;-0.37;81.27;100580.13;10525459;28;20051;-60
2021/12/26 12:00:12;;;;;;;6.07;4.50;;;;;;;-0.28;81.79;100585.13;10539560;28;20492;-60
2021/12/26 12:05:40;;;;;;;8.30;4.90;;;;;;;-0.35;82.13;100575.84;10539994;28;20059;-61
2021/12/26 12:10:56;;;;;;;6.80;4.82;;;;;;;-0.21;81.78;100566.16;10539038;28;20048;-62
2021/12/26 12:16:06;;;;;;;6.35;5.13;;;;;;;-0.14;82.12;100581.50;10539750;28;20054;-60
2021/12/26 12:21:30;;;;;;;7.93;5.70;;;;;;;-0.05;83.27;100584.78;10540030;28;20062;-60
2021/12/26 12:26:42;;;;;;;10.57;5.28;;;;;;;-0.22;82.73;100572.19;10539323;28;20492;-60
2021/12/26 12:31:50;;;;;;;10.25;6.15;;;;;;;-0.17;83.01;100571.25;10539349;28;20051;-60
2021/12/26 12:37:00;;;;;;;8.02;5.95;;;;;;;-0.09;81.77;100559.94;10538627;28;20040;-59
2021/12/26 12:42:02;;;;;;;9.07;5.15;;;;;;;-0.08;84.52;100550.53;10537722;28;20488;-59
2021/12/26 12:47:08;;;;;;;9.18;5.88;;;;;;;-0.27;82.63;100552.53;10539154;28;20060;-60
2021/12/26 12:52:41;;;;;;;6.85;5.22;;;;;;;0.10;83.39;100562.19;10539012;28;20480;-60
2021/12/26 12:57:50;;;;;;;8.40;5.63;;;;;;;-0.06;83.72;100551.34;10539122;28;20070;-60
2021/12/26 13:02:55;;;;;;;9.23;6.28;;;;;;;0.13;85.90;100557.00;10538520;28;20389;-59
2021/12/26 13:08:12;;;;;;;10.80;6.70;;;;;;;0.13;85.86;100547.53;10538646;28;20088;-59
2021/12/26 13:13:17;;;;;;;9.57;6.47;;;;;;;0.13;86.47;100544.97;10537646;28;20055;-61
2021/12/26 13:18:21;;;;;;;10.25;6.28;;;;;;;-0.02;86.46;100533.25;10538933;28;20063;-60
2021/12/26 13:23:24;;;;;;;8.68;6.68;;;;;;;0.13;86.96;100539.81;10541659;28;20400;-59
2021/12/26 13:28:28;;;;;;;7.53;5.80;;;;;;;0.23;87.03;100534.50;10544998;28;20046;-60
2021/12/26 13:33:35;;;;;;;9.38;6.43;;;;;;;0.27;87.75;100530.97;10545437;28;20136;-60
2021/12/26 13:38:38;;;;;;;10.60;6.72;;;;;;;0.10;86.08;100524.44;10545191;28;20044;-59
2021/12/26 13:43:42;;;;;;;10.90;7.25;;;;;;;0.04;88.20;100521.13;10545233;28;20052;-58
2021/12/26 13:48:48;;;;;;;9.82;6.57;;;;;;;-0.01;87.30;100514.34;10544908;28;20044;-60
2021/12/26 13:54:24;;;;;;;11.20;7.25;;;;;;;-0.08;87.87;100520.47;10544583;28;20048;-60
2021/12/26 13:59:35;;;;;;;10.98;6.88;;;;;;;-0.10;88.30;100522.22;10544901;28;20059;-60
2021/12/26 14:04:41;;;;;;;10.80;6.72;;;;;;;-0.11;87.84;100499.94;10544227;28;20055;-61
2021/12/26 14:09:45;;;;;;;7.80;6.20;;;;;;;-0.02;88.19;100497.22;10544943;28;20055;-60
2021/12/26 14:14:47;;;;;;;10.10;7.22;;;;;;;-0.11;87.87;100493.94;10544035;28;20048;-59
2021/12/26 14:19:58;;;;;;;11.90;7.65;;;;;;;-0.13;89.04;100496.53;10543705;28;20083;-61
2021/12/26 14:25:00;;;;;;;9.40;6.82;;;;;;;-0.13;87.65;100496.53;10543778;28;20075;-59
2021/12/26 14:30:04;;;;;;;11.52;7.30;;;;;;;-0.11;88.73;100494.78;10542999;28;20430;-60
2021/12/26 14:35:14;;;;;;;12.60;7.75;;;;;;;-0.19;89.75;100486.34;10542379;28;20048;-60
2021/12/26 14:40:16;;;;;;;12.65;8.60;;;;;;;-0.02;90.43;100497.22;10542853;28;20055;-59
2021/12/26 14:45:19;;;;;;;13.30;7.93;;;;;;;-0.09;89.94;100497.34;10542375;28;20052;-61
2021/12/26 14:50:25;;;;;;;12.63;8.95;;;;;;;-0.17;91.27;100494.88;10542391;28;20480;-60
2021/12/26 14:55:32;;;;;;;12.48;8.30;;;;;;;0.00;91.00;100499.75;10541674;28;20043;-61
2021/12/26 15:00:34;;;;;;;16.40;8.15;;;;;;;-0.19;91.77;100499.22;10542215;28;20044;-60
2021/12/26 15:05:37;;;;;;;13.88;7.90;;;;;;;-0.04;91.28;100498.09;10541424;28;20056;-61
2021/12/26 15:10:47;;;;;;;10.55;7.57;;;;;;;-0.09;93.03;100479.31;10541500;28;20040;-59
2021/12/26 15:15:51;;;;;;;13.68;8.55;;;;;;;-0.22;93.24;100476.13;10541258;28;20055;-62
2021/12/26 15:20:54;;;;;;;13.25;8.77;;;;;;;-0.28;93.15;100471.94;10539972;28;20055;-60
2021/12/26 15:26:07;;;;;;;13.80;8.88;;;;;;;-0.26;93.40;100467.59;10540956;28;20064;-60
2021/12/26 15:31:26;;;;;;;11.75;8.02;;;;;;;-0.29;94.75;100461.66;10541332;28;20067;-61
2021/12/26 15:36:30;;;;;;;16.40;9.07;;;;;;;-0.20;94.76;100453.81;10540844;28;20050;-59
2021/12/26 15:41:36;;;;;;;15.75;9.57;;;;;;;-0.27;94.82;100453.06;10539870;28;20048;-60
2021/12/26 15:46:42;;;;;;;11.90;8.70;;;;;;;-0.24;95.05;100462.44;10539754;28;20044;-61
2021/12/26 15:51:46;;;;;;;12.57;8.55;;;;;;;-0.26;96.00;100459.03;10540383;28;20059;-62
2021/12/26 15:56:48;;;;;;;11.70;8.30;;;;;;;-0.32;96.40;100457.44;10540408;28;20048;-60
2021/12/26 16:01:51;;;;;;;14.73;9.20;;;;;;;-0.17;95.79;100470.88;10539574;28;20040;-60
2021/12/26 16:06:53;;;;;;;15.98;9.73;;;;;;;-0.23;97.02;100459.84;10539908;28;20561;-60
2021/12/26 16:11:56;;;;;;;15.90;10.45;;;;;;;-0.28;96.49;100458.22;10539655;28;20040;-61
2021/12/26 16:16:58;;;;;;;15.50;10.25;;;;;;;-0.22;97.67;100443.53;10539682;28;20056;-60
2021/12/26 16:22:01;;;;;;;16.75;10.60;;;;;;;-0.08;97.25;100452.72;10539404;28;20054;-59
2021/12/26 16:27:03;;;;;;;14.57;10.15;;;;;;;0.10;95.53;100452.38;10539913;28;20048;-60
2021/12/26 16:32:06;;;;;;;16.98;10.73;;;;;;;-0.13;96.33;100439.94;10539093;28;20052;-59
2021/12/26 16:37:09;;;;;;;18.65;11.02;;;;;;;-0.20;96.43;100446.91;10539894;28;20048;-61
2021/12/26 16:42:11;;;;;;;16.60;10.10;;;;;;;-0.09;98.25;100451.00;10539469;28;20040;-61
2021/12/26 16:47:13;;;;;;;15.30;9.43;;;;;;;0.01;97.02;100451.69;10539054;28;20056;-59
2021/12/26 16:52:18;;;;;;;18.52;10.25;;;;;;;-0.15;97.02;100443.41;10539904;28;20044;-61
2021/12/26 16:57:20;;;;;;;16.63;10.50;;;;;;;-0.16;98.40;100439.16;10541449;28;20062;-59
2021/12/26 17:02:23;;;;;;;17.70;10.90;;;;;;;-0.11;100.00;100440.75;10547458;28;20055;-60
2021/12/26 17:07:27;;;;;;;18.88;11.35;;;;;;;-0.09;99.29;100431.25;10547030;28;20064;-60
2021/12/26 17:12:29;;;;;;;17.40;10.88;;;;;;;-0.24;100.00;100429.81;10546291;28;20412;-61
2021/12/26 17:17:32;;;;;;;18.92;10.73;;;;;;;-0.18;100.00;100423.72;10546639;28;20376;-62
2021/12/26 17:22:34;;;;;;;18.60;12.50;;;;;;;-0.28;100.00;100415.34;10545929;28;20048;-58
2021/12/26 17:27:36;;;;;;;18.48;12.55;;;;;;;-0.13;100.00;100421.09;10546643;28;20052;-60
2021/12/26 17:32:39;;;;;;;18.73;10.90;;;;;;;-0.03;100.00;100427.75;10545562;28;20048;-59
2021/12/26 17:37:41;;;;;;;20.05;12.90;;;;;;;-0.22;100.00;100410.09;10546040;28;20056;-58
2021/12/26 17:42:44;;;;;;;24.63;12.30;;;;;;;-0.12;100.00;100410.72;10545310;28;20051;-58
2021/12/26 17:47:47;;;;;;;18.42;11.95;;;;;;;-0.21;100.00;100408.34;10543868;28;20431;-58
2021/12/26 17:52:49;;;;;;;18.45;12.73;;;;;;;-0.17;100.00;100404.00;10544636;28;20040;-58
2021/12/26 17:57:51;;;;;;;20.88;12.05;;;;;;;-0.25;100.00;100406.72;10544640;28;20054;-59
2021/12/26 18:02:54;;;;;;;19.13;12.52;;;;;;;-0.12;100.00;100400.44;10544424;28;20052;-60
2021/12/26 18:07:57;;;;;;;18.27;12.73;;;;;;;-0.07;100.00;100397.78;10543328;28;20102;-58
2021/12/26 18:12:59;;;;;;;16.67;11.80;;;;;;;-0.16;100.00;100396.25;10544145;28;20040;-58
2021/12/26 18:18:02;;;;;;;20.73;12.38;;;;;;;-0.11;100.00;100393.59;10544186;28;20055;-58
2021/12/26 18:23:05;;;;;;;16.55;11.98;;;;;;;0.06;100.00;100388.94;10543338;28;20059;-59
2021/12/26 18:28:07;;;;;;;19.02;13.68;;;;;;;-0.13;100.00;100387.63;10543928;28;20044;-58
2021/12/26 18:33:10;;;;;;;19.60;13.48;;;;;;;-0.22;100.00;100391.19;10543338;28;20044;-59
2021/12/26 18:38:13;;;;;;;18.27;13.20;;;;;;;0.11;100.00;100399.16;10543055;28;20047;-60
2021/12/26 18:43:15;;;;;;;24.25;13.75;;;;;;;-0.06;100.00;100396.91;10542717;28;20056;-59
2021/12/26 18:48:19;;;;;;;20.35;13.45;;;;;;;0.01;100.00;100387.34;10541399;28;20048;-59
2021/12/26 18:53:21;;;;;;;20.45;13.90;;;;;;;0.08;100.00;100379.44;10542300;28;20040;-60
2021/12/26 18:58:24;;;;;;;20.60;13.90;;;;;;;0.02;100.00;100371.88;10541916;28;20407;-60
2021/12/26 19:03:29;;;;;;;21.90;14.95;;;;;;;0.18;100.00;100369.81;10540846;28;20047;-58
2021/12/26 19:08:31;;;;;;;21.00;14.05;;;;;;;-0.03;100.00;100369.38;10542148;28;20056;-60
2021/12/26 19:13:35;;;;;;;20.42;14.25;;;;;;;0.02;100.00;100365.84;10541209;28;20476;-60
2021/12/26 19:18:38;;;;;;;22.50;14.23;;;;;;;0.23;100.00;100362.84;10541909;28;20416;-60
2021/12/26 19:23:40;;;;;;;20.83;14.63;;;;;;;0.20;100.00;100365.47;10540779;28;20059;-59
2021/12/26 19:28:46;;;;;;;26.52;15.05;;;;;;;0.14;100.00;100358.72;10541200;28;20043;-60
2021/12/26 19:33:49;;;;;;;24.50;15.75;;;;;;;0.19;100.00;100361.22;10540980;28;20055;-59
2021/12/26 19:38:53;;;;;;;23.30;15.65;;;;;;;0.16;100.00;100356.97;10541032;28;20054;-59
2021/12/26 19:43:57;;;;;;;21.58;16.02;;;;;;;0.26;100.00;100365.34;10540255;28;20048;-57
2021/12/26 19:49:02;;;;;;;21.52;14.35;;;;;;;0.33;100.00;100366.91;10541130;28;20048;-59
2021/12/26 19:54:04;;;;;;;23.25;15.15;;;;;;;0.28;100.00;100360.16;10540185;28;20051;-59
2021/12/26 19:59:08;;;;;;;25.33;17.30;;;;;;;0.33;100.00;100363.47;10539926;28;20052;-59
2021/12/26 20:04:12;;;;;;;25.23;16.17;;;;;;;0.33;100.00;100343.72;10539902;28;20059;-62
2021/12/26 20:09:15;;;;;;;25.85;17.55;;;;;;;0.30;100.00;100354.13;10540057;28;20055;-59
2021/12/26 20:14:18;;;;;;;25.30;16.50;;;;;;;0.33;100.00;100343.72;10540120;28;20044;-59
2021/12/26 20:19:20;;;;;;;27.42;15.93;;;;;;;0.48;100.00;100342.53;10539794;28;20058;-59
2021/12/26 20:24:25;;;;;;;28.02;17.75;;;;;;;0.30;100.00;100341.25;10539336;28;20480;-59
2021/12/26 20:29:27;;;;;;;26.65;17.75;;;;;;;0.34;100.00;100334.28;10539331;28;20044;-60
2021/12/26 20:34:30;;;;;;;27.83;17.70;;;;;;;0.28;100.00;100335.25;10545826;28;20040;-60
2021/12/26 20:39:35;;;;;;;28.40;18.25;;;;;;;0.33;100.00;100335.16;10548025;28;20143;-60
2021/12/26 20:44:38;;;;;;;27.33;18.08;;;;;;;0.38;100.00;100320.44;10547287;28;20490;-59
2021/12/26 20:49:41;;;;;;;29.02;18.65;;;;;;;0.48;100.00;100319.34;10547727;28;20052;-61
2021/12/26 20:54:45;;;;;;;28.48;19.33;;;;;;;0.57;100.00;100320.00;10546881;28;20044;-60
2021/12/26 20:59:48;;;;;;;28.67;20.08;;;;;;;0.51;100.00;100308.13;10545740;28;20487;-60
2021/12/26 21:04:50;;;;;;;31.15;21.00;;;;;;;0.49;100.00;100303.03;10546730;28;20055;-60
2021/12/26 21:09:53;;;;;;;32.17;20.90;;;;;;;0.58;100.00;100308.84;10546454;28;20056;-60
2021/12/26 21:14:55;;;;;;;37.28;21.23;;;;;;;0.37;100.00;100303.31;10546446;28;20048;-60
2021/12/26 21:19:57;;;;;;;33.40;22.58;;;;;;;0.64;100.00;100306.09;10546154;28;20071;-60
2021/12/26 21:25:00;;;;;;;39.60;22.98;;;;;;;0.39;100.00;100305.81;10546317;28;20040;-60
2021/12/26 21:30:05;;;;;;;37.17;23.63;;;;;;;0.38;100.00;100306.72;10545943;28;20040;-61
2021/12/26 21:35:09;;;;;;;41.58;23.98;;;;;;;0.40;100.00;100302.38;10545457;28;20048;-60
2021/12/26 21:40:12;;;;;;;33.58;22.60;;;;;;;0.46;100.00;100297.94;10544289;28;20052;-60
2021/12/26 21:45:15;;;;;;;35.90;23.05;;;;;;;0.54;100.00;100292.63;10545443;28;20400;-60
2021/12/26 21:50:20;;;;;;;45.47;24.30;;;;;;;0.41;100.00;100289.47;10545536;28;20048;-60
2021/12/26 21:55:25;;;;;;;43.25;24.55;;;;;;;0.45;100.00;100293.66;10544866;28;20476;-60
2021/12/26 22:00:29;;;;;;;36.35;23.13;;;;;;;0.55;100.00;100290.00;10545218;28;20062;-61
2021/12/26 22:05:32;;;;;;;42.65;25.02;;;;;;;0.52;100.00;100284.91;10544286;28;20054;-60
2021/12/26 22:10:34;;;;;;;46.72;27.17;;;;;;;0.49;100.00;100291.88;10543261;28;20059;-61
2021/12/26 22:15:37;;;;;;;42.03;23.95;;;;;;;0.49;100.00;100281.56;10544308;28;20044;-60
2021/12/26 22:20:39;;;;;;;43.70;26.50;;;;;;;0.45;100.00;100277.38;10543865;28;20044;-59
2021/12/26 22:25:42;;;;;;;42.13;25.05;;;;;;;0.50;100.00;100273.78;10543452;28;20059;-61
2021/12/26 22:30:45;;;;;;;37.85;24.67;;;;;;;0.58;100.00;100276.19;10543526;28;20048;-60
2021/12/26 22:35:47;;;;;;;38.67;25.27;;;;;;;0.51;100.00;100275.47;10543687;28;20043;-61
2021/12/26 22:40:49;;;;;;;43.63;25.90;;;;;;;0.48;100.00;100275.56;10543028;28;20048;-60
2021/12/26 22:45:51;;;;;;;47.38;27.50;;;;;;;0.53;100.00;100273.72;10542062;28;20044;-60
2021/12/26 22:50:54;;;;;;;49.58;26.80;;;;;;;0.56;100.00;100275.38;10542603;28;20051;-59
2021/12/26 22:55:56;;;;;;;42.63;25.52;;;;;;;0.58;100.00;100268.44;10540824;28;20054;-61
2021/12/26 23:01:01;;;;;;;55.63;30.10;;;;;;;0.46;100.00;100266.19;10542224;28;20048;-62
2021/12/26 23:06:06;;;;;;;50.10;28.63;;;;;;;0.62;100.00;100254.59;10542115;28;20048;-61
2021/12/26 23:11:09;;;;;;;47.83;28.15;;;;;;;0.54;100.00;100252.22;10541556;28;20416;-60
2021/12/26 23:16:12;;;;;;;45.22;26.98;;;;;;;0.53;100.00;100257.41;10541538;28;20048;-61
2021/12/26 23:21:15;;;;;;;53.75;28.70;;;;;;;0.65;100.00;100249.38;10541448;28;20131;-61